sensor_id;sensor_type;location;lat;lon;timestamp;P1;durP1;ratioP1;P2;durP2;ratioP2
60919;SDS011;59039;52.108;19.942;2022-07-22T00:01:41;10.20;;;5.60;;
60919;SDS011;59039;52.108;19.942;2022-07-22T00:04:06;10.10;;;6.60;;
60919;SDS011;59039;52.108;19.942;2022-07-22T00:06:31;8.70;;;6.30;;
60919;SDS011;59039;52.108;19.942;2022-07-22T00:08:56;13.20;;;6.90;;
60919;SDS011;59039;52.108;19.942;2022-07-22T00:11:22;11.30;;;7.10;;
60919;SDS011;59039;52.108;19.942;2022-07-22T00:13:48;13.50;;;7.00;;
60919;SDS011;59039;52.108;19.942;2022-07-22T00:16:13;13.20;;;6.50;;
60919;SDS011;59039;52.108;19.942;2022-07-22T00:18:39;15.80;;;7.40;;
60919;SDS011;59039;52.108;19.942;2022-07-22T00:21:05;10.80;;;6.70;;
60919;SDS011;59039;52.108;19.942;2022-07-22T00:23:30;11.30;;;7.10;;
60919;SDS011;59039;52.108;19.942;2022-07-22T00:25:56;9.30;;;6.50;;
60919;SDS011;59039;52.108;19.942;2022-07-22T00:28:22;11.80;;;6.40;;
60919;SDS011;59039;52.108;19.942;2022-07-22T00:30:48;11.90;;;6.20;;
60919;SDS011;59039;52.108;19.942;2022-07-22T00:33:13;11.40;;;7.20;;
60919;SDS011;59039;52.108;19.942;2022-07-22T00:35:38;12.60;;;7.50;;
60919;SDS011;59039;52.108;19.942;2022-07-22T00:38:03;11.70;;;6.60;;
60919;SDS011;59039;52.108;19.942;2022-07-22T00:40:29;9.60;;;6.70;;
60919;SDS011;59039;52.108;19.942;2022-07-22T00:42:54;9.80;;;6.80;;
60919;SDS011;59039;52.108;19.942;2022-07-22T00:45:19;8.60;;;6.20;;
60919;SDS011;59039;52.108;19.942;2022-07-22T00:47:45;9.90;;;7.10;;
60919;SDS011;59039;52.108;19.942;2022-07-22T00:50:10;12.70;;;7.60;;
60919;SDS011;59039;52.108;19.942;2022-07-22T00:52:36;11.40;;;7.60;;
60919;SDS011;59039;52.108;19.942;2022-07-22T00:55:02;11.10;;;6.80;;
60919;SDS011;59039;52.108;19.942;2022-07-22T00:57:29;11.60;;;7.10;;
60919;SDS011;59039;52.108;19.942;2022-07-22T00:59:54;11.50;;;7.10;;
60919;SDS011;59039;52.108;19.942;2022-07-22T01:02:20;13.90;;;7.10;;
60919;SDS011;59039;52.108;19.942;2022-07-22T01:04:45;9.10;;;6.50;;
60919;SDS011;59039;52.108;19.942;2022-07-22T01:07:11;12.90;;;7.50;;
60919;SDS011;59039;52.108;19.942;2022-07-22T01:09:36;8.70;;;7.20;;
60919;SDS011;59039;52.108;19.942;2022-07-22T01:12:01;9.10;;;6.90;;
60919;SDS011;59039;52.108;19.942;2022-07-22T01:14:27;11.10;;;7.20;;
60919;SDS011;59039;52.108;19.942;2022-07-22T01:16:52;10.20;;;7.00;;
60919;SDS011;59039;52.108;19.942;2022-07-22T01:19:18;11.10;;;8.00;;
60919;SDS011;59039;52.108;19.942;2022-07-22T01:21:43;13.50;;;7.90;;
60919;SDS011;59039;52.108;19.942;2022-07-22T01:24:08;14.80;;;7.70;;
60919;SDS011;59039;52.108;19.942;2022-07-22T01:26:33;14.50;;;7.80;;
60919;SDS011;59039;52.108;19.942;2022-07-22T01:28:59;10.60;;;7.60;;
60919;SDS011;59039;52.108;19.942;2022-07-22T01:31:24;12.40;;;7.60;;
60919;SDS011;59039;52.108;19.942;2022-07-22T01:33:50;13.20;;;7.80;;
60919;SDS011;59039;52.108;19.942;2022-07-22T01:36:16;11.70;;;7.50;;
60919;SDS011;59039;52.108;19.942;2022-07-22T01:38:41;14.00;;;7.60;;
60919;SDS011;59039;52.108;19.942;2022-07-22T01:41:07;12.90;;;7.80;;
60919;SDS011;59039;52.108;19.942;2022-07-22T01:43:32;10.80;;;8.00;;
60919;SDS011;59039;52.108;19.942;2022-07-22T01:45:58;13.10;;;7.40;;
60919;SDS011;59039;52.108;19.942;2022-07-22T01:48:23;11.70;;;7.50;;
60919;SDS011;59039;52.108;19.942;2022-07-22T01:50:49;13.40;;;8.20;;
60919;SDS011;59039;52.108;19.942;2022-07-22T01:53:15;16.20;;;7.60;;
60919;SDS011;59039;52.108;19.942;2022-07-22T01:55:40;14.80;;;7.20;;
60919;SDS011;59039;52.108;19.942;2022-07-22T01:58:05;12.60;;;7.50;;
60919;SDS011;59039;52.108;19.942;2022-07-22T02:00:31;9.60;;;7.30;;
60919;SDS011;59039;52.108;19.942;2022-07-22T02:02:57;11.50;;;8.00;;
60919;SDS011;59039;52.108;19.942;2022-07-22T02:05:23;13.30;;;7.30;;
60919;SDS011;59039;52.108;19.942;2022-07-22T02:07:49;13.30;;;8.00;;
60919;SDS011;59039;52.108;19.942;2022-07-22T02:10:14;13.10;;;8.40;;
60919;SDS011;59039;52.108;19.942;2022-07-22T02:12:39;13.90;;;8.00;;
60919;SDS011;59039;52.108;19.942;2022-07-22T02:15:05;11.80;;;7.70;;
60919;SDS011;59039;52.108;19.942;2022-07-22T02:17:32;12.40;;;7.90;;
60919;SDS011;59039;52.108;19.942;2022-07-22T02:19:58;13.40;;;7.70;;
60919;SDS011;59039;52.108;19.942;2022-07-22T02:22:23;12.00;;;8.00;;
60919;SDS011;59039;52.108;19.942;2022-07-22T02:24:48;10.10;;;7.70;;
60919;SDS011;59039;52.108;19.942;2022-07-22T02:27:14;12.90;;;7.50;;
60919;SDS011;59039;52.108;19.942;2022-07-22T02:29:39;15.00;;;7.30;;
60919;SDS011;59039;52.108;19.942;2022-07-22T02:32:04;13.80;;;7.20;;
60919;SDS011;59039;52.108;19.942;2022-07-22T02:34:30;11.50;;;7.60;;
60919;SDS011;59039;52.108;19.942;2022-07-22T02:36:55;14.30;;;8.10;;
60919;SDS011;59039;52.108;19.942;2022-07-22T02:39:21;15.80;;;8.10;;
60919;SDS011;59039;52.108;19.942;2022-07-22T02:41:46;11.90;;;8.20;;
60919;SDS011;59039;52.108;19.942;2022-07-22T02:44:11;13.90;;;8.80;;
60919;SDS011;59039;52.108;19.942;2022-07-22T02:46:37;16.80;;;9.60;;
60919;SDS011;59039;52.108;19.942;2022-07-22T02:49:02;13.30;;;9.30;;
60919;SDS011;59039;52.108;19.942;2022-07-22T02:51:27;13.70;;;8.70;;
60919;SDS011;59039;52.108;19.942;2022-07-22T02:53:53;16.50;;;10.10;;
60919;SDS011;59039;52.108;19.942;2022-07-22T02:56:18;15.30;;;10.00;;
60919;SDS011;59039;52.108;19.942;2022-07-22T02:58:43;15.60;;;9.90;;
60919;SDS011;59039;52.108;19.942;2022-07-22T03:01:08;18.60;;;11.10;;
60919;SDS011;59039;52.108;19.942;2022-07-22T03:03:34;15.90;;;9.40;;
60919;SDS011;59039;52.108;19.942;2022-07-22T03:05:59;13.50;;;8.90;;
60919;SDS011;59039;52.108;19.942;2022-07-22T03:08:25;15.50;;;9.30;;
60919;SDS011;59039;52.108;19.942;2022-07-22T03:10:50;14.80;;;8.50;;
60919;SDS011;59039;52.108;19.942;2022-07-22T03:13:16;16.50;;;9.40;;
60919;SDS011;59039;52.108;19.942;2022-07-22T03:15:41;18.20;;;12.00;;
60919;SDS011;59039;52.108;19.942;2022-07-22T03:18:06;20.60;;;12.50;;
60919;SDS011;59039;52.108;19.942;2022-07-22T03:20:31;22.50;;;12.00;;
60919;SDS011;59039;52.108;19.942;2022-07-22T03:22:56;21.40;;;11.50;;
60919;SDS011;59039;52.108;19.942;2022-07-22T03:25:22;17.10;;;10.50;;
60919;SDS011;59039;52.108;19.942;2022-07-22T03:27:47;18.20;;;10.50;;
60919;SDS011;59039;52.108;19.942;2022-07-22T03:30:12;16.60;;;10.90;;
60919;SDS011;59039;52.108;19.942;2022-07-22T03:32:38;16.50;;;10.10;;
60919;SDS011;59039;52.108;19.942;2022-07-22T03:35:03;15.70;;;9.80;;
60919;SDS011;59039;52.108;19.942;2022-07-22T03:37:29;16.50;;;9.00;;
60919;SDS011;59039;52.108;19.942;2022-07-22T03:39:54;16.30;;;10.30;;
60919;SDS011;59039;52.108;19.942;2022-07-22T03:42:19;15.00;;;10.40;;
60919;SDS011;59039;52.108;19.942;2022-07-22T03:44:44;16.00;;;11.10;;
60919;SDS011;59039;52.108;19.942;2022-07-22T03:47:10;16.50;;;10.00;;
60919;SDS011;59039;52.108;19.942;2022-07-22T03:49:35;14.30;;;9.70;;
60919;SDS011;59039;52.108;19.942;2022-07-22T03:52:00;16.80;;;9.40;;
60919;SDS011;59039;52.108;19.942;2022-07-22T03:54:25;15.70;;;9.60;;
60919;SDS011;59039;52.108;19.942;2022-07-22T03:56:51;16.90;;;9.80;;
60919;SDS011;59039;52.108;19.942;2022-07-22T03:59:16;17.60;;;10.00;;
60919;SDS011;59039;52.108;19.942;2022-07-22T04:01:42;23.10;;;10.60;;
60919;SDS011;59039;52.108;19.942;2022-07-22T04:04:07;14.70;;;9.10;;
60919;SDS011;59039;52.108;19.942;2022-07-22T04:06:33;17.70;;;10.40;;
60919;SDS011;59039;52.108;19.942;2022-07-22T04:08:58;14.50;;;9.70;;
60919;SDS011;59039;52.108;19.942;2022-07-22T04:11:23;14.30;;;9.70;;
60919;SDS011;59039;52.108;19.942;2022-07-22T04:13:49;11.40;;;8.40;;
60919;SDS011;59039;52.108;19.942;2022-07-22T04:16:14;11.00;;;8.90;;
60919;SDS011;59039;52.108;19.942;2022-07-22T04:18:39;12.80;;;8.60;;
60919;SDS011;59039;52.108;19.942;2022-07-22T04:21:05;12.70;;;8.30;;
60919;SDS011;59039;52.108;19.942;2022-07-22T04:23:30;15.40;;;8.80;;
60919;SDS011;59039;52.108;19.942;2022-07-22T04:25:55;11.20;;;8.20;;
60919;SDS011;59039;52.108;19.942;2022-07-22T04:28:21;13.30;;;8.70;;
60919;SDS011;59039;52.108;19.942;2022-07-22T04:30:46;11.60;;;8.30;;
60919;SDS011;59039;52.108;19.942;2022-07-22T04:33:12;14.20;;;8.40;;
60919;SDS011;59039;52.108;19.942;2022-07-22T04:35:37;13.10;;;8.70;;
60919;SDS011;59039;52.108;19.942;2022-07-22T04:38:02;14.20;;;7.90;;
60919;SDS011;59039;52.108;19.942;2022-07-22T04:40:28;18.40;;;8.90;;
60919;SDS011;59039;52.108;19.942;2022-07-22T04:42:53;12.60;;;7.90;;
60919;SDS011;59039;52.108;19.942;2022-07-22T04:45:18;13.50;;;7.90;;
60919;SDS011;59039;52.108;19.942;2022-07-22T04:47:43;14.70;;;8.80;;
60919;SDS011;59039;52.108;19.942;2022-07-22T04:50:09;14.60;;;8.80;;
60919;SDS011;59039;52.108;19.942;2022-07-22T04:52:34;13.70;;;8.70;;
60919;SDS011;59039;52.108;19.942;2022-07-22T04:54:59;14.70;;;8.70;;
60919;SDS011;59039;52.108;19.942;2022-07-22T04:57:25;15.00;;;7.80;;
60919;SDS011;59039;52.108;19.942;2022-07-22T04:59:51;13.60;;;7.90;;
60919;SDS011;59039;52.108;19.942;2022-07-22T05:02:19;15.40;;;8.80;;
60919;SDS011;59039;52.108;19.942;2022-07-22T05:04:45;10.50;;;8.30;;
60919;SDS011;59039;52.108;19.942;2022-07-22T05:07:10;12.10;;;8.90;;
60919;SDS011;59039;52.108;19.942;2022-07-22T05:09:35;13.70;;;8.40;;
60919;SDS011;59039;52.108;19.942;2022-07-22T05:12:01;13.90;;;8.90;;
60919;SDS011;59039;52.108;19.942;2022-07-22T05:14:26;14.00;;;8.50;;
60919;SDS011;59039;52.108;19.942;2022-07-22T05:16:51;15.10;;;9.30;;
60919;SDS011;59039;52.108;19.942;2022-07-22T05:19:17;16.50;;;9.70;;
60919;SDS011;59039;52.108;19.942;2022-07-22T05:21:42;15.40;;;9.60;;
60919;SDS011;59039;52.108;19.942;2022-07-22T05:24:07;14.00;;;10.30;;
60919;SDS011;59039;52.108;19.942;2022-07-22T05:26:32;16.30;;;10.40;;
60919;SDS011;59039;52.108;19.942;2022-07-22T05:28:58;16.10;;;10.50;;
60919;SDS011;59039;52.108;19.942;2022-07-22T05:31:23;17.80;;;10.30;;
60919;SDS011;59039;52.108;19.942;2022-07-22T05:33:48;14.60;;;10.80;;
60919;SDS011;59039;52.108;19.942;2022-07-22T05:36:14;15.10;;;11.20;;
60919;SDS011;59039;52.108;19.942;2022-07-22T05:38:39;15.60;;;11.10;;
60919;SDS011;59039;52.108;19.942;2022-07-22T05:41:04;19.10;;;12.60;;
60919;SDS011;59039;52.108;19.942;2022-07-22T05:43:30;16.90;;;12.60;;
60919;SDS011;59039;52.108;19.942;2022-07-22T05:45:55;19.80;;;13.50;;
60919;SDS011;59039;52.108;19.942;2022-07-22T05:48:20;18.30;;;12.90;;
60919;SDS011;59039;52.108;19.942;2022-07-22T05:50:46;22.50;;;14.60;;
60919;SDS011;59039;52.108;19.942;2022-07-22T05:53:11;19.50;;;14.10;;
60919;SDS011;59039;52.108;19.942;2022-07-22T05:55:36;20.20;;;13.80;;
60919;SDS011;59039;52.108;19.942;2022-07-22T05:58:02;20.30;;;15.00;;
60919;SDS011;59039;52.108;19.942;2022-07-22T06:00:27;21.40;;;14.90;;
60919;SDS011;59039;52.108;19.942;2022-07-22T06:02:52;20.90;;;15.50;;
60919;SDS011;59039;52.108;19.942;2022-07-22T06:05:18;24.60;;;16.80;;
60919;SDS011;59039;52.108;19.942;2022-07-22T06:07:43;24.40;;;17.20;;
60919;SDS011;59039;52.108;19.942;2022-07-22T06:10:08;23.30;;;17.60;;
60919;SDS011;59039;52.108;19.942;2022-07-22T06:12:33;25.00;;;17.70;;
60919;SDS011;59039;52.108;19.942;2022-07-22T06:14:59;26.30;;;18.00;;
60919;SDS011;59039;52.108;19.942;2022-07-22T06:17:24;25.10;;;17.50;;
60919;SDS011;59039;52.108;19.942;2022-07-22T06:19:49;23.80;;;17.50;;
60919;SDS011;59039;52.108;19.942;2022-07-22T06:22:15;22.60;;;16.70;;
60919;SDS011;59039;52.108;19.942;2022-07-22T06:24:40;22.50;;;17.80;;
60919;SDS011;59039;52.108;19.942;2022-07-22T06:27:05;25.40;;;17.50;;
60919;SDS011;59039;52.108;19.942;2022-07-22T06:29:30;22.40;;;17.50;;
60919;SDS011;59039;52.108;19.942;2022-07-22T06:31:56;20.40;;;16.50;;
60919;SDS011;59039;52.108;19.942;2022-07-22T06:34:21;23.10;;;17.10;;
60919;SDS011;59039;52.108;19.942;2022-07-22T06:36:46;20.70;;;16.80;;
60919;SDS011;59039;52.108;19.942;2022-07-22T06:39:12;21.30;;;16.60;;
60919;SDS011;59039;52.108;19.942;2022-07-22T06:41:37;23.50;;;16.10;;
60919;SDS011;59039;52.108;19.942;2022-07-22T06:44:02;20.80;;;16.80;;
60919;SDS011;59039;52.108;19.942;2022-07-22T06:46:28;21.90;;;17.00;;
60919;SDS011;59039;52.108;19.942;2022-07-22T06:48:53;22.50;;;17.00;;
60919;SDS011;59039;52.108;19.942;2022-07-22T06:51:18;21.00;;;16.40;;
60919;SDS011;59039;52.108;19.942;2022-07-22T06:53:43;22.50;;;17.30;;
60919;SDS011;59039;52.108;19.942;2022-07-22T06:56:08;19.10;;;15.90;;
60919;SDS011;59039;52.108;19.942;2022-07-22T06:58:34;21.50;;;16.20;;
60919;SDS011;59039;52.108;19.942;2022-07-22T07:00:59;21.30;;;16.70;;
60919;SDS011;59039;52.108;19.942;2022-07-22T07:03:24;21.20;;;16.30;;
60919;SDS011;59039;52.108;19.942;2022-07-22T07:05:49;22.40;;;16.20;;
60919;SDS011;59039;52.108;19.942;2022-07-22T07:08:15;19.00;;;16.00;;
60919;SDS011;59039;52.108;19.942;2022-07-22T07:10:40;18.20;;;15.70;;
60919;SDS011;59039;52.108;19.942;2022-07-22T07:13:05;18.00;;;16.00;;
60919;SDS011;59039;52.108;19.942;2022-07-22T07:15:30;18.30;;;15.70;;
60919;SDS011;59039;52.108;19.942;2022-07-22T07:17:56;21.50;;;15.40;;
60919;SDS011;59039;52.108;19.942;2022-07-22T07:20:22;18.50;;;15.30;;
60919;SDS011;59039;52.108;19.942;2022-07-22T07:22:48;19.80;;;17.00;;
60919;SDS011;59039;52.108;19.942;2022-07-22T07:25:13;24.90;;;17.70;;
60919;SDS011;59039;52.108;19.942;2022-07-22T07:27:39;18.80;;;16.00;;
60919;SDS011;59039;52.108;19.942;2022-07-22T07:30:05;18.60;;;15.30;;
60919;SDS011;59039;52.108;19.942;2022-07-22T07:32:31;18.00;;;14.70;;
60919;SDS011;59039;52.108;19.942;2022-07-22T07:34:56;17.10;;;15.10;;
60919;SDS011;59039;52.108;19.942;2022-07-22T07:37:21;21.40;;;15.30;;
60919;SDS011;59039;52.108;19.942;2022-07-22T07:39:47;19.00;;;15.40;;
60919;SDS011;59039;52.108;19.942;2022-07-22T07:42:12;20.10;;;15.40;;
60919;SDS011;59039;52.108;19.942;2022-07-22T07:44:37;20.40;;;16.10;;
60919;SDS011;59039;52.108;19.942;2022-07-22T07:47:02;18.70;;;15.00;;
60919;SDS011;59039;52.108;19.942;2022-07-22T07:49:28;17.20;;;15.30;;
60919;SDS011;59039;52.108;19.942;2022-07-22T07:51:53;18.50;;;16.10;;
60919;SDS011;59039;52.108;19.942;2022-07-22T07:54:18;19.30;;;15.80;;
60919;SDS011;59039;52.108;19.942;2022-07-22T07:56:44;18.20;;;16.00;;
60919;SDS011;59039;52.108;19.942;2022-07-22T07:59:10;16.80;;;15.10;;
60919;SDS011;59039;52.108;19.942;2022-07-22T08:01:35;20.40;;;14.20;;
60919;SDS011;59039;52.108;19.942;2022-07-22T08:04:01;16.90;;;13.90;;
60919;SDS011;59039;52.108;19.942;2022-07-22T08:06:26;26.70;;;15.30;;
60919;SDS011;59039;52.108;19.942;2022-07-22T08:08:51;22.10;;;15.40;;
60919;SDS011;59039;52.108;19.942;2022-07-22T08:11:16;32.40;;;16.80;;
60919;SDS011;59039;52.108;19.942;2022-07-22T08:13:43;20.80;;;14.10;;
60919;SDS011;59039;52.108;19.942;2022-07-22T08:16:08;21.40;;;14.90;;
60919;SDS011;59039;52.108;19.942;2022-07-22T08:18:33;52.10;;;18.00;;
60919;SDS011;59039;52.108;19.942;2022-07-22T08:20:59;17.70;;;15.10;;
60919;SDS011;59039;52.108;19.942;2022-07-22T08:23:24;26.40;;;14.70;;
60919;SDS011;59039;52.108;19.942;2022-07-22T08:25:49;19.60;;;14.40;;
60919;SDS011;59039;52.108;19.942;2022-07-22T08:28:15;19.90;;;14.80;;
60919;SDS011;59039;52.108;19.942;2022-07-22T08:30:40;28.20;;;15.60;;
60919;SDS011;59039;52.108;19.942;2022-07-22T08:33:06;21.00;;;14.30;;
60919;SDS011;59039;52.108;19.942;2022-07-22T08:35:31;22.30;;;15.20;;
60919;SDS011;59039;52.108;19.942;2022-07-22T08:37:57;20.00;;;15.60;;
60919;SDS011;59039;52.108;19.942;2022-07-22T08:40:22;21.30;;;14.50;;
60919;SDS011;59039;52.108;19.942;2022-07-22T08:42:49;34.80;;;15.40;;
60919;SDS011;59039;52.108;19.942;2022-07-22T08:45:15;24.60;;;15.30;;
60919;SDS011;59039;52.108;19.942;2022-07-22T08:47:43;17.70;;;13.50;;
60919;SDS011;59039;52.108;19.942;2022-07-22T08:50:11;16.20;;;14.10;;
60919;SDS011;59039;52.108;19.942;2022-07-22T08:52:36;24.50;;;15.20;;
60919;SDS011;59039;52.108;19.942;2022-07-22T08:55:03;21.10;;;14.00;;
60919;SDS011;59039;52.108;19.942;2022-07-22T08:57:30;17.30;;;14.10;;
60919;SDS011;59039;52.108;19.942;2022-07-22T08:59:58;20.10;;;15.20;;
60919;SDS011;59039;52.108;19.942;2022-07-22T09:02:25;17.70;;;14.00;;
60919;SDS011;59039;52.108;19.942;2022-07-22T09:05:01;17.40;;;13.40;;
60919;SDS011;59039;52.108;19.942;2022-07-22T09:09:58;17.70;;;12.90;;
60919;SDS011;59039;52.108;19.942;2022-07-22T09:12:24;17.80;;;13.40;;
60919;SDS011;59039;52.108;19.942;2022-07-22T09:14:51;16.00;;;14.20;;
60919;SDS011;59039;52.108;19.942;2022-07-22T09:17:37;17.90;;;13.70;;
60919;SDS011;59039;52.108;19.942;2022-07-22T09:20:15;16.30;;;13.60;;
60919;SDS011;59039;52.108;19.942;2022-07-22T09:22:43;15.90;;;13.80;;
60919;SDS011;59039;52.108;19.942;2022-07-22T09:25:43;16.80;;;13.20;;
60919;SDS011;59039;52.108;19.942;2022-07-22T09:30:30;18.40;;;13.40;;
60919;SDS011;59039;52.108;19.942;2022-07-22T09:32:55;15.30;;;12.30;;
60919;SDS011;59039;52.108;19.942;2022-07-22T09:35:20;15.60;;;12.50;;
60919;SDS011;59039;52.108;19.942;2022-07-22T09:37:53;16.80;;;13.30;;
60919;SDS011;59039;52.108;19.942;2022-07-22T09:40:26;15.50;;;13.10;;
60919;SDS011;59039;52.108;19.942;2022-07-22T09:45:20;16.10;;;13.30;;
60919;SDS011;59039;52.108;19.942;2022-07-22T09:47:46;18.00;;;13.30;;
60919;SDS011;59039;52.108;19.942;2022-07-22T09:50:34;15.00;;;13.40;;
60919;SDS011;59039;52.108;19.942;2022-07-22T09:53:00;13.10;;;11.70;;
60919;SDS011;59039;52.108;19.942;2022-07-22T09:55:26;14.70;;;13.00;;
60919;SDS011;59039;52.108;19.942;2022-07-22T09:57:53;16.80;;;12.70;;
60919;SDS011;59039;52.108;19.942;2022-07-22T10:00:21;17.30;;;11.80;;
60919;SDS011;59039;52.108;19.942;2022-07-22T10:02:49;13.90;;;11.20;;
60919;SDS011;59039;52.108;19.942;2022-07-22T10:05:17;15.90;;;11.70;;
60919;SDS011;59039;52.108;19.942;2022-07-22T10:07:53;15.50;;;11.70;;
60919;SDS011;59039;52.108;19.942;2022-07-22T10:10:21;12.60;;;10.80;;
60919;SDS011;59039;52.108;19.942;2022-07-22T10:12:51;14.10;;;11.00;;
60919;SDS011;59039;52.108;19.942;2022-07-22T10:15:18;15.30;;;11.40;;
60919;SDS011;59039;52.108;19.942;2022-07-22T10:17:46;15.10;;;11.20;;
60919;SDS011;59039;52.108;19.942;2022-07-22T10:20:13;13.90;;;11.30;;
60919;SDS011;59039;52.108;19.942;2022-07-22T10:25:08;14.70;;;12.40;;
60919;SDS011;59039;52.108;19.942;2022-07-22T10:30:28;14.20;;;11.80;;
60919;SDS011;59039;52.108;19.942;2022-07-22T10:33:03;13.60;;;11.40;;
60919;SDS011;59039;52.108;19.942;2022-07-22T10:35:34;16.10;;;11.90;;
60919;SDS011;59039;52.108;19.942;2022-07-22T10:38:02;14.20;;;10.90;;
60919;SDS011;59039;52.108;19.942;2022-07-22T10:40:44;14.10;;;12.30;;
60919;SDS011;59039;52.108;19.942;2022-07-22T10:43:10;13.20;;;11.20;;
60919;SDS011;59039;52.108;19.942;2022-07-22T10:45:37;14.00;;;12.50;;
60919;SDS011;59039;52.108;19.942;2022-07-22T10:48:04;15.40;;;12.40;;
60919;SDS011;59039;52.108;19.942;2022-07-22T10:52:59;15.10;;;11.50;;
60919;SDS011;59039;52.108;19.942;2022-07-22T10:55:25;13.10;;;11.70;;
60919;SDS011;59039;52.108;19.942;2022-07-22T10:57:51;15.10;;;11.50;;
60919;SDS011;59039;52.108;19.942;2022-07-22T11:00:16;14.80;;;12.00;;
60919;SDS011;59039;52.108;19.942;2022-07-22T11:02:41;12.70;;;10.70;;
60919;SDS011;59039;52.108;19.942;2022-07-22T11:05:07;13.50;;;11.20;;
60919;SDS011;59039;52.108;19.942;2022-07-22T11:07:32;13.50;;;10.80;;
60919;SDS011;59039;52.108;19.942;2022-07-22T11:10:08;11.70;;;10.40;;
60919;SDS011;59039;52.108;19.942;2022-07-22T11:12:38;16.50;;;12.00;;
60919;SDS011;59039;52.108;19.942;2022-07-22T11:15:04;14.90;;;11.10;;
60919;SDS011;59039;52.108;19.942;2022-07-22T11:17:29;12.20;;;9.90;;
60919;SDS011;59039;52.108;19.942;2022-07-22T11:19:55;13.90;;;9.90;;
60919;SDS011;59039;52.108;19.942;2022-07-22T11:22:20;12.20;;;9.10;;
60919;SDS011;59039;52.108;19.942;2022-07-22T11:24:48;12.70;;;9.50;;
60919;SDS011;59039;52.108;19.942;2022-07-22T11:27:17;12.70;;;8.40;;
60919;SDS011;59039;52.108;19.942;2022-07-22T11:29:47;13.70;;;9.20;;
60919;SDS011;59039;52.108;19.942;2022-07-22T11:32:14;13.10;;;9.20;;
60919;SDS011;59039;52.108;19.942;2022-07-22T11:34:41;12.70;;;8.20;;
60919;SDS011;59039;52.108;19.942;2022-07-22T11:37:08;9.30;;;8.10;;
60919;SDS011;59039;52.108;19.942;2022-07-22T11:39:33;11.80;;;8.90;;
60919;SDS011;59039;52.108;19.942;2022-07-22T11:41:59;12.30;;;8.50;;
60919;SDS011;59039;52.108;19.942;2022-07-22T11:44:25;11.60;;;8.20;;
60919;SDS011;59039;52.108;19.942;2022-07-22T11:46:52;10.00;;;8.70;;
60919;SDS011;59039;52.108;19.942;2022-07-22T11:49:18;10.20;;;8.60;;
60919;SDS011;59039;52.108;19.942;2022-07-22T11:51:45;11.40;;;7.90;;
60919;SDS011;59039;52.108;19.942;2022-07-22T11:54:10;17.00;;;8.50;;
60919;SDS011;59039;52.108;19.942;2022-07-22T11:56:37;9.40;;;7.90;;
60919;SDS011;59039;52.108;19.942;2022-07-22T11:59:04;11.70;;;8.40;;
60919;SDS011;59039;52.108;19.942;2022-07-22T12:01:30;13.20;;;8.70;;
60919;SDS011;59039;52.108;19.942;2022-07-22T12:03:58;12.20;;;9.20;;
60919;SDS011;59039;52.108;19.942;2022-07-22T12:06:27;10.80;;;7.90;;
60919;SDS011;59039;52.108;19.942;2022-07-22T12:08:54;11.20;;;9.20;;
60919;SDS011;59039;52.108;19.942;2022-07-22T12:11:23;13.90;;;9.50;;
60919;SDS011;59039;52.108;19.942;2022-07-22T12:13:50;10.30;;;8.70;;
60919;SDS011;59039;52.108;19.942;2022-07-22T12:16:35;12.60;;;9.20;;
60919;SDS011;59039;52.108;19.942;2022-07-22T12:19:11;12.00;;;9.70;;
60919;SDS011;59039;52.108;19.942;2022-07-22T12:21:55;13.20;;;9.70;;
60919;SDS011;59039;52.108;19.942;2022-07-22T12:24:31;11.00;;;9.10;;
60919;SDS011;59039;52.108;19.942;2022-07-22T12:27:06;13.20;;;9.30;;
60919;SDS011;59039;52.108;19.942;2022-07-22T12:32:03;11.80;;;8.60;;
60919;SDS011;59039;52.108;19.942;2022-07-22T12:36:57;12.70;;;9.10;;
60919;SDS011;59039;52.108;19.942;2022-07-22T12:39:22;11.80;;;8.40;;
60919;SDS011;59039;52.108;19.942;2022-07-22T12:41:50;14.20;;;8.90;;
60919;SDS011;59039;52.108;19.942;2022-07-22T12:44:17;11.10;;;8.50;;
60919;SDS011;59039;52.108;19.942;2022-07-22T12:46:45;12.30;;;9.50;;
60919;SDS011;59039;52.108;19.942;2022-07-22T12:49:19;9.20;;;7.80;;
60919;SDS011;59039;52.108;19.942;2022-07-22T12:52:08;9.50;;;8.20;;
60919;SDS011;59039;52.108;19.942;2022-07-22T12:54:36;11.00;;;8.40;;
60919;SDS011;59039;52.108;19.942;2022-07-22T12:57:03;11.10;;;8.20;;
60919;SDS011;59039;52.108;19.942;2022-07-22T12:59:29;10.70;;;7.80;;
60919;SDS011;59039;52.108;19.942;2022-07-22T13:01:55;10.00;;;7.80;;
60919;SDS011;59039;52.108;19.942;2022-07-22T13:04:20;11.40;;;8.40;;
60919;SDS011;59039;52.108;19.942;2022-07-22T13:06:46;13.40;;;8.40;;
60919;SDS011;59039;52.108;19.942;2022-07-22T13:09:11;9.90;;;8.20;;
60919;SDS011;59039;52.108;19.942;2022-07-22T13:11:36;9.90;;;8.30;;
60919;SDS011;59039;52.108;19.942;2022-07-22T13:14:01;8.50;;;7.60;;
60919;SDS011;59039;52.108;19.942;2022-07-22T13:16:27;10.10;;;8.20;;
60919;SDS011;59039;52.108;19.942;2022-07-22T13:18:52;9.80;;;8.40;;
60919;SDS011;59039;52.108;19.942;2022-07-22T13:21:17;10.20;;;8.70;;
60919;SDS011;59039;52.108;19.942;2022-07-22T13:23:42;10.10;;;8.20;;
60919;SDS011;59039;52.108;19.942;2022-07-22T13:26:08;10.00;;;8.50;;
60919;SDS011;59039;52.108;19.942;2022-07-22T13:28:33;9.50;;;8.50;;
60919;SDS011;59039;52.108;19.942;2022-07-22T13:30:59;11.00;;;9.00;;
60919;SDS011;59039;52.108;19.942;2022-07-22T13:33:24;12.10;;;9.10;;
60919;SDS011;59039;52.108;19.942;2022-07-22T13:35:50;8.50;;;7.30;;
60919;SDS011;59039;52.108;19.942;2022-07-22T13:38:15;10.30;;;8.20;;
60919;SDS011;59039;52.108;19.942;2022-07-22T13:40:40;12.90;;;8.00;;
60919;SDS011;59039;52.108;19.942;2022-07-22T13:43:05;12.60;;;8.60;;
60919;SDS011;59039;52.108;19.942;2022-07-22T13:45:31;12.70;;;8.70;;
60919;SDS011;59039;52.108;19.942;2022-07-22T13:47:56;12.60;;;8.40;;
60919;SDS011;59039;52.108;19.942;2022-07-22T13:50:22;10.40;;;8.50;;
60919;SDS011;59039;52.108;19.942;2022-07-22T13:52:48;11.40;;;8.00;;
60919;SDS011;59039;52.108;19.942;2022-07-22T13:55:13;10.10;;;8.20;;
60919;SDS011;59039;52.108;19.942;2022-07-22T13:57:38;9.70;;;8.10;;
60919;SDS011;59039;52.108;19.942;2022-07-22T14:00:04;12.50;;;8.80;;
60919;SDS011;59039;52.108;19.942;2022-07-22T14:02:30;11.20;;;8.90;;
60919;SDS011;59039;52.108;19.942;2022-07-22T14:04:55;10.70;;;9.50;;
60919;SDS011;59039;52.108;19.942;2022-07-22T14:07:20;13.40;;;9.50;;
60919;SDS011;59039;52.108;19.942;2022-07-22T14:09:46;10.30;;;9.20;;
60919;SDS011;59039;52.108;19.942;2022-07-22T14:12:11;11.10;;;9.10;;
60919;SDS011;59039;52.108;19.942;2022-07-22T14:14:36;10.50;;;8.50;;
60919;SDS011;59039;52.108;19.942;2022-07-22T14:17:01;10.50;;;8.60;;
60919;SDS011;59039;52.108;19.942;2022-07-22T14:19:27;11.00;;;9.10;;
60919;SDS011;59039;52.108;19.942;2022-07-22T14:21:52;11.10;;;8.60;;
60919;SDS011;59039;52.108;19.942;2022-07-22T14:24:17;10.00;;;8.60;;
60919;SDS011;59039;52.108;19.942;2022-07-22T14:26:43;14.40;;;8.90;;
60919;SDS011;59039;52.108;19.942;2022-07-22T14:29:08;12.80;;;8.20;;
60919;SDS011;59039;52.108;19.942;2022-07-22T14:31:33;11.70;;;8.60;;